TTPP/POS METAR and TAF weather

Enter ICAO airport designator
Station Type Date Time Source
TTPP METAR 2020/10/29 15:40 UTC NOAA

TTPP 291540Z 07007KT 9999 VCSH SCT015 30/25 Q1009 NOSIG VCSH-N SE


Station Type Date Time Source
TTPP Decoded METAR 2020/10/29 15:40 UTC NOAA

Piarco International Airport, Trinidad, Trinidad and Tobago (TTPP) 10-37N 061-21W 15M
Oct 29, 2020 - 11:40 AM EDT / 2020.10.29 1540 UTC
Wind: from the ENE (070 degrees) at 8 MPH (7 KT):0
Visibility: greater than 7 mile(s):0
Sky conditions: partly cloudy
Weather: showers in the vicinity
Temperature: 86 F (30 C)
Heat index: 96.8 F (36.0 C):1
Dew Point: 77 F (25 C)
Relative Humidity: 74%
Pressure (altimeter): 29.80 in. Hg (1009 hPa)
ob: TTPP 291540Z 07007KT 9999 VCSH SCT015 30/25 Q1009 NOSIG VCSH-N SE
cycle: 15

Station Type Date Time Source
TTPP TAF 2020/10/29 12:25 UTC NOAA

TAF TTPP 291000Z 2912/3012 10014KT 9999 FEW016 PROB40
TEMPO 2915/2920 6000 SHRA FEW012CB SCT015
BECMG 2923/3001 10005KT FEW016

Example: see airport list